createdAt,value
2022-07-31T00:01:21.387Z,6.53
2022-07-31T00:03:48.035Z,7.15
2022-07-31T00:06:14.787Z,6.72
2022-07-31T00:08:41.365Z,6.63
2022-07-31T00:11:11.624Z,7.82
2022-07-31T00:13:57.474Z,7.27
2022-07-31T00:16:25.656Z,6.55
2022-07-31T00:18:52.465Z,7.22
2022-07-31T00:21:19.191Z,6.32
2022-07-31T00:23:45.776Z,7.63
2022-07-31T00:26:12.419Z,8.13
2022-07-31T00:28:39.159Z,6.70
2022-07-31T00:31:05.755Z,5.80
2022-07-31T00:33:32.380Z,6.43
2022-07-31T00:35:59.023Z,8.00
2022-07-31T00:38:27.580Z,6.63
2022-07-31T00:40:54.816Z,9.90
2022-07-31T00:43:21.944Z,8.65
2022-07-31T00:45:51.901Z,8.63
2022-07-31T00:48:26.204Z,13.07
2022-07-31T00:50:54.995Z,6.93
2022-07-31T00:53:21.599Z,6.85
2022-07-31T00:55:51.930Z,7.32
2022-07-31T00:58:20.124Z,6.95
2022-07-31T01:00:47.378Z,6.75
2022-07-31T01:03:14.635Z,9.05
2022-07-31T01:05:41.912Z,7.13
2022-07-31T01:08:08.732Z,7.20
2022-07-31T01:10:44.136Z,8.35
2022-07-31T01:13:20.552Z,7.80
2022-07-31T01:15:48.123Z,7.40
2022-07-31T01:18:17.377Z,10.32
2022-07-31T01:20:46.875Z,6.97
2022-07-31T01:23:17.790Z,10.95
2022-07-31T01:26:35.436Z,8.23
2022-07-31T01:29:22.489Z,8.00
2022-07-31T01:32:01.403Z,8.15
2022-07-31T01:34:49.958Z,8.88
2022-07-31T01:37:23.872Z,7.75
2022-07-31T01:39:54.705Z,11.40
2022-07-31T01:42:23.176Z,7.97
2022-07-31T01:44:54.536Z,8.05
2022-07-31T01:47:24.381Z,9.70
2022-07-31T01:49:53.720Z,8.63
2022-07-31T01:52:27.937Z,8.73
2022-07-31T01:54:55.624Z,9.30
2022-07-31T01:57:24.658Z,9.90
2022-07-31T01:59:57.188Z,9.82
2022-07-31T02:02:49.452Z,9.73
2022-07-31T02:05:19.434Z,10.23
2022-07-31T02:07:47.861Z,8.65
2022-07-31T02:10:16.546Z,9.20
2022-07-31T02:12:45.017Z,9.77
2022-07-31T02:15:14.355Z,9.05
2022-07-31T02:17:46.249Z,9.50
2022-07-31T02:20:20.166Z,8.15
2022-07-31T02:22:48.982Z,7.80
2022-07-31T02:25:15.714Z,9.70
2022-07-31T02:27:53.922Z,8.27
2022-07-31T02:30:27.805Z,9.70
2022-07-31T02:33:20.277Z,7.13
2022-07-31T02:35:54.011Z,8.50
2022-07-31T02:38:23.992Z,9.75
2022-07-31T02:40:57.907Z,8.32
2022-07-31T02:43:26.767Z,8.52
2022-07-31T02:45:57.482Z,10.48
2022-07-31T02:48:26.056Z,8.65
2022-07-31T02:50:55.724Z,12.10
2022-07-31T02:53:22.496Z,9.20
2022-07-31T02:55:53.650Z,8.40
2022-07-31T02:58:20.371Z,7.82
2022-07-31T03:00:47.473Z,8.07
2022-07-31T03:03:15.355Z,7.97
2022-07-31T03:05:42.493Z,7.82
2022-07-31T03:08:09.273Z,8.23
2022-07-31T03:10:39.553Z,9.33
2022-07-31T03:13:07.048Z,7.95
2022-07-31T03:15:35.150Z,7.95
2022-07-31T03:18:01.857Z,10.65
2022-07-31T03:20:40.840Z,8.32
2022-07-31T03:23:11.289Z,7.97
2022-07-31T03:25:50.146Z,8.18
2022-07-31T03:28:19.342Z,8.57
2022-07-31T03:30:50.361Z,9.77
2022-07-31T03:33:17.161Z,8.75
2022-07-31T03:35:44.545Z,11.38
2022-07-31T03:38:39.155Z,9.10
2022-07-31T03:41:01.153Z,8.38
2022-07-31T03:43:30.652Z,8.15
2022-07-31T03:46:15.542Z,8.23
2022-07-31T03:48:42.306Z,9.00
2022-07-31T03:51:09.409Z,8.10
2022-07-31T03:53:36.470Z,8.13
2022-07-31T03:56:06.448Z,7.78
2022-07-31T03:58:34.052Z,7.97
2022-07-31T04:01:04.675Z,8.68
2022-07-31T04:03:35.332Z,11.55
2022-07-31T04:06:23.001Z,9.57
2022-07-31T04:08:49.649Z,8.05
2022-07-31T04:11:16.404Z,12.48
2022-07-31T04:13:43.191Z,8.23
2022-07-31T04:16:09.793Z,8.32
2022-07-31T04:18:36.811Z,8.65
2022-07-31T04:21:03.510Z,7.82
2022-07-31T04:23:32.612Z,10.27
2022-07-31T04:26:19.860Z,10.93
2022-07-31T04:28:58.756Z,9.32
2022-07-31T04:31:25.831Z,8.55
2022-07-31T04:33:56.465Z,8.82
2022-07-31T04:36:30.274Z,9.93
2022-07-31T04:39:00.490Z,8.15
2022-07-31T04:41:28.251Z,8.05
2022-07-31T04:43:55.191Z,9.23
2022-07-31T04:46:21.931Z,7.82
2022-07-31T04:48:49.229Z,8.43
2022-07-31T04:51:20.864Z,8.95
2022-07-31T04:53:50.183Z,8.73
2022-07-31T04:56:42.115Z,8.35
2022-07-31T04:59:14.281Z,11.05
2022-07-31T05:01:45.064Z,10.80
2022-07-31T05:04:14.445Z,8.35
2022-07-31T05:06:42.538Z,9.02
2022-07-31T05:09:18.453Z,8.50
2022-07-31T05:11:47.119Z,9.30
2022-07-31T05:14:16.650Z,8.82
2022-07-31T05:16:43.883Z,10.35
2022-07-31T05:19:13.796Z,9.35
2022-07-31T05:22:02.463Z,9.60
2022-07-31T05:24:48.077Z,10.23
2022-07-31T05:27:14.729Z,11.18
2022-07-31T05:29:42.433Z,8.95
2022-07-31T05:32:10.142Z,9.02
2022-07-31T05:34:37.618Z,8.85
2022-07-31T05:37:05.009Z,13.02
2022-07-31T05:39:34.712Z,8.90
2022-07-31T05:42:19.625Z,7.47
2022-07-31T05:45:04.737Z,7.70
2022-07-31T05:47:40.901Z,8.05
2022-07-31T05:50:10.186Z,9.48
2022-07-31T05:52:37.604Z,10.20
2022-07-31T05:55:30.330Z,7.20
2022-07-31T05:58:17.615Z,6.68
2022-07-31T06:00:49.761Z,8.32
2022-07-31T06:03:16.918Z,8.73
2022-07-31T06:06:05.121Z,8.63
2022-07-31T06:08:32.120Z,6.32
2022-07-31T06:10:58.989Z,6.20
2022-07-31T06:13:27.512Z,8.73
2022-07-31T06:15:56.114Z,6.75
2022-07-31T06:18:23.439Z,5.82
2022-07-31T06:20:51.431Z,8.80
2022-07-31T06:23:22.903Z,5.43
2022-07-31T06:26:03.690Z,5.10
2022-07-31T06:28:46.412Z,5.70
2022-07-31T06:31:21.242Z,6.68
2022-07-31T06:33:49.484Z,6.65
2022-07-31T06:36:18.670Z,7.88
2022-07-31T06:38:56.112Z,6.43
2022-07-31T06:41:46.758Z,5.68
2022-07-31T06:44:29.011Z,6.57
2022-07-31T06:47:16.049Z,6.03
2022-07-31T06:50:01.658Z,7.53
2022-07-31T06:52:33.880Z,7.93
2022-07-31T06:55:01.415Z,5.55
2022-07-31T06:57:28.051Z,5.45
2022-07-31T06:59:54.787Z,6.65
2022-07-31T07:02:22.059Z,6.35
2022-07-31T07:05:04.925Z,6.47
2022-07-31T07:07:35.236Z,7.97
2022-07-31T07:10:02.128Z,5.25
2022-07-31T07:12:47.519Z,5.45
2022-07-31T07:15:14.642Z,4.88
2022-07-31T07:17:42.065Z,6.00
2022-07-31T07:20:14.494Z,5.88
2022-07-31T07:22:41.226Z,9.50
2022-07-31T07:25:08.642Z,4.20
2022-07-31T07:27:35.361Z,6.50
2022-07-31T07:30:02.998Z,4.57
2022-07-31T07:32:29.712Z,7.78
2022-07-31T07:35:00.087Z,4.93
2022-07-31T07:37:56.708Z,6.18
2022-07-31T07:40:25.080Z,4.15
2022-07-31T07:42:52.492Z,4.80
2022-07-31T07:45:19.282Z,5.43
2022-07-31T07:48:05.418Z,3.97
2022-07-31T07:50:41.662Z,3.95
2022-07-31T07:53:20.244Z,5.68
2022-07-31T07:56:18.739Z,7.13
2022-07-31T07:59:05.579Z,5.43
2022-07-31T08:02:00.836Z,3.90
2022-07-31T08:04:30.205Z,3.47
2022-07-31T08:06:57.999Z,4.28
2022-07-31T08:09:28.638Z,3.17
2022-07-31T08:12:13.914Z,7.57
2022-07-31T08:15:09.812Z,3.00
2022-07-31T08:18:14.590Z,3.63
2022-07-31T08:20:41.348Z,3.55
2022-07-31T08:23:08.031Z,3.38
2022-07-31T08:25:34.743Z,3.33
2022-07-31T08:28:03.124Z,24.98
2022-07-31T08:30:32.699Z,6.07
2022-07-31T08:32:59.732Z,4.20
2022-07-31T08:35:50.951Z,3.40
2022-07-31T08:38:19.771Z,4.93
2022-07-31T08:41:25.110Z,3.83
2022-07-31T08:44:01.472Z,2.95
2022-07-31T08:46:36.285Z,3.97
2022-07-31T08:49:04.026Z,4.07
2022-07-31T08:51:50.512Z,3.92
2022-07-31T08:54:51.026Z,4.85
2022-07-31T08:57:18.141Z,3.28
2022-07-31T08:59:45.188Z,3.92
2022-07-31T09:02:13.145Z,4.47
2022-07-31T09:04:57.144Z,2.80
2022-07-31T09:07:24.069Z,3.13
2022-07-31T09:09:51.506Z,8.38
2022-07-31T09:12:33.407Z,2.42
2022-07-31T09:15:05.064Z,2.72
2022-07-31T09:17:34.668Z,4.20
2022-07-31T09:20:02.344Z,2.88
2022-07-31T09:22:33.894Z,3.20
2022-07-31T09:25:12.861Z,3.30
2022-07-31T09:27:40.585Z,2.13
2022-07-31T09:30:08.866Z,3.90
2022-07-31T09:32:54.246Z,5.90
2022-07-31T09:35:39.913Z,2.25
2022-07-31T09:38:08.724Z,2.00
2022-07-31T09:40:57.142Z,3.58
2022-07-31T09:44:00.479Z,2.30
2022-07-31T09:46:41.012Z,5.88
2022-07-31T09:49:08.624Z,2.25
2022-07-31T09:51:45.420Z,5.43
2022-07-31T09:54:23.258Z,2.80
2022-07-31T09:57:13.254Z,4.28
2022-07-31T09:59:55.746Z,3.72
2022-07-31T10:02:25.593Z,3.92
2022-07-31T10:04:55.061Z,5.05
2022-07-31T10:07:31.993Z,2.10
2022-07-31T10:10:08.943Z,2.42
2022-07-31T10:12:49.653Z,2.95
2022-07-31T10:15:19.116Z,4.00
2022-07-31T10:17:53.010Z,4.13
2022-07-31T10:20:35.773Z,5.85
2022-07-31T10:23:16.645Z,2.30
2022-07-31T10:26:04.977Z,2.40
2022-07-31T10:28:35.592Z,2.97
2022-07-31T10:31:03.809Z,6.95
2022-07-31T10:33:46.966Z,3.78
2022-07-31T10:36:38.863Z,2.90
2022-07-31T10:39:42.098Z,1.90
2022-07-31T10:42:35.624Z,1.75
2022-07-31T10:45:07.185Z,1.88
2022-07-31T10:47:48.051Z,1.70
2022-07-31T10:50:34.555Z,1.23
2022-07-31T10:53:12.278Z,4.10
2022-07-31T10:56:17.573Z,3.15
2022-07-31T10:58:59.622Z,2.53
2022-07-31T11:01:53.028Z,1.90
2022-07-31T11:04:42.123Z,1.85
2022-07-31T11:07:28.539Z,1.75
2022-07-31T11:10:10.763Z,2.63
2022-07-31T11:13:11.160Z,2.33
2022-07-31T11:16:06.378Z,2.80
2022-07-31T11:19:03.957Z,1.95
2022-07-31T11:21:38.990Z,2.22
2022-07-31T11:24:19.354Z,2.17
2022-07-31T11:26:52.945Z,1.90
2022-07-31T11:30:01.809Z,1.90
2022-07-31T11:32:22.817Z,4.65
2022-07-31T11:34:54.938Z,3.65
2022-07-31T11:37:43.341Z,3.80
2022-07-31T11:40:14.017Z,1.90
2022-07-31T11:42:47.019Z,2.50
2022-07-31T11:45:17.554Z,6.97
2022-07-31T11:48:12.433Z,2.65
2022-07-31T11:50:43.110Z,2.47
2022-07-31T11:53:10.720Z,3.42
2022-07-31T11:55:56.557Z,2.63
2022-07-31T11:58:25.519Z,3.05
2022-07-31T12:00:58.069Z,2.75
2022-07-31T12:03:30.093Z,2.10
2022-07-31T12:05:57.203Z,4.20
2022-07-31T12:08:25.357Z,2.63
2022-07-31T12:10:54.113Z,3.40
2022-07-31T12:13:22.070Z,3.05
2022-07-31T12:16:04.348Z,4.07
2022-07-31T12:18:33.866Z,2.80
2022-07-31T12:21:04.172Z,2.40
2022-07-31T12:23:41.831Z,3.13
2022-07-31T12:26:12.319Z,2.17
2022-07-31T12:28:39.205Z,2.08
2022-07-31T12:31:05.937Z,3.83
2022-07-31T12:33:43.159Z,4.18
2022-07-31T12:36:17.013Z,1.88
2022-07-31T12:38:48.912Z,3.20
2022-07-31T12:41:16.469Z,3.13
2022-07-31T12:43:50.225Z,2.17
2022-07-31T12:46:21.237Z,1.60
2022-07-31T12:48:47.966Z,2.60
2022-07-31T12:51:14.613Z,3.17
2022-07-31T12:53:41.214Z,1.98
2022-07-31T12:56:12.225Z,2.17
2022-07-31T12:58:38.836Z,2.33
2022-07-31T13:01:05.842Z,1.70
2022-07-31T13:03:38.827Z,2.35
2022-07-31T13:06:13.706Z,2.65
2022-07-31T13:08:40.773Z,2.22
2022-07-31T13:11:07.415Z,4.93
2022-07-31T13:13:33.993Z,3.22
2022-07-31T13:16:00.679Z,2.70
2022-07-31T13:18:27.367Z,4.38
2022-07-31T13:20:54.013Z,2.55
2022-07-31T13:23:21.487Z,3.88
2022-07-31T13:25:48.160Z,3.03
2022-07-31T13:28:14.794Z,2.40
2022-07-31T13:30:41.651Z,2.67
2022-07-31T13:33:08.436Z,2.08
2022-07-31T13:35:35.107Z,5.03
2022-07-31T13:38:01.815Z,2.67
2022-07-31T13:40:47.033Z,2.75
2022-07-31T13:43:14.040Z,2.45
2022-07-31T13:45:40.635Z,3.28
2022-07-31T13:48:09.610Z,3.05
2022-07-31T13:50:40.349Z,2.08
2022-07-31T13:53:07.499Z,2.08
2022-07-31T13:55:34.461Z,2.05
2022-07-31T13:58:01.701Z,2.80
2022-07-31T14:00:29.463Z,2.85
2022-07-31T14:02:57.069Z,2.47
2022-07-31T14:05:26.655Z,2.22
2022-07-31T14:07:55.079Z,3.22
2022-07-31T14:10:22.306Z,2.88
2022-07-31T14:12:49.177Z,4.97
2022-07-31T14:15:17.848Z,1.73
2022-07-31T14:17:44.513Z,3.03
2022-07-31T14:20:12.127Z,3.35
2022-07-31T14:22:38.925Z,2.08
2022-07-31T14:25:05.647Z,5.65
2022-07-31T14:27:32.457Z,2.83
2022-07-31T14:29:59.141Z,3.67
2022-07-31T14:32:25.872Z,4.63
2022-07-31T14:34:52.890Z,1.98
2022-07-31T14:37:20.615Z,5.07
2022-07-31T14:39:47.689Z,2.42
2022-07-31T14:42:14.537Z,3.15
2022-07-31T14:44:42.476Z,3.25
2022-07-31T14:47:11.119Z,3.35
2022-07-31T14:50:07.046Z,5.88
2022-07-31T14:52:26.588Z,3.67
2022-07-31T14:54:53.842Z,5.72
2022-07-31T14:57:22.338Z,2.35
2022-07-31T14:59:49.964Z,1.90
2022-07-31T15:02:21.841Z,3.40
2022-07-31T15:04:49.387Z,2.67
2022-07-31T15:07:34.817Z,1.92
2022-07-31T15:10:07.443Z,2.55
2022-07-31T15:12:34.234Z,3.72
2022-07-31T15:15:01.416Z,2.95
2022-07-31T15:17:28.614Z,2.53
2022-07-31T15:19:55.382Z,3.92
2022-07-31T15:22:22.080Z,3.47
2022-07-31T15:24:50.133Z,3.33
2022-07-31T15:27:18.506Z,3.67
2022-07-31T15:30:00.615Z,2.35
2022-07-31T15:32:32.387Z,2.25
2022-07-31T15:34:59.128Z,2.53
2022-07-31T15:37:25.971Z,2.67
2022-07-31T15:40:03.902Z,2.85
2022-07-31T15:42:31.978Z,3.95
2022-07-31T15:44:58.814Z,2.90
2022-07-31T15:47:25.878Z,4.85
2022-07-31T15:49:52.595Z,3.95
2022-07-31T15:52:19.808Z,2.47
2022-07-31T15:54:47.086Z,2.97
2022-07-31T15:57:14.689Z,2.15
2022-07-31T15:59:41.886Z,2.90
2022-07-31T16:02:11.613Z,3.35
2022-07-31T16:04:48.578Z,4.03
2022-07-31T16:08:28.944Z,4.50
2022-07-31T16:10:15.751Z,2.17
2022-07-31T16:12:46.612Z,3.60
2022-07-31T16:15:14.117Z,4.82
2022-07-31T16:17:41.321Z,2.78
2022-07-31T16:20:13.493Z,3.30
2022-07-31T16:23:03.178Z,2.67
2022-07-31T16:25:35.074Z,2.38
2022-07-31T16:28:03.793Z,6.78
2022-07-31T16:30:31.477Z,1.80
2022-07-31T16:32:58.441Z,4.75
2022-07-31T16:35:28.596Z,3.85
2022-07-31T16:37:55.517Z,4.10
2022-07-31T16:40:29.324Z,4.47
2022-07-31T16:43:51.096Z,5.53
2022-07-31T16:45:51.122Z,2.30
2022-07-31T16:48:18.119Z,2.47
2022-07-31T16:50:47.412Z,2.03
2022-07-31T16:54:10.073Z,2.05
2022-07-31T16:56:08.165Z,4.07
2022-07-31T16:58:35.066Z,2.03
2022-07-31T17:01:03.945Z,3.50
2022-07-31T17:04:00.507Z,4.50
2022-07-31T17:06:18.724Z,2.97
2022-07-31T17:09:16.597Z,2.78
2022-07-31T17:11:51.145Z,2.90
2022-07-31T17:14:19.998Z,3.30
2022-07-31T17:16:49.260Z,2.25
2022-07-31T17:19:41.413Z,2.78
2022-07-31T17:22:08.413Z,2.05
2022-07-31T17:24:38.980Z,5.85
2022-07-31T17:27:08.479Z,4.03
2022-07-31T17:29:36.145Z,2.05
2022-07-31T17:32:02.999Z,2.65
2022-07-31T17:34:30.469Z,6.32
2022-07-31T17:36:57.084Z,2.10
2022-07-31T17:39:26.203Z,2.03
2022-07-31T17:41:56.797Z,2.15
2022-07-31T17:44:23.412Z,2.38
2022-07-31T17:46:51.438Z,3.55
2022-07-31T17:49:19.603Z,2.60
2022-07-31T17:51:57.794Z,3.55
2022-07-31T17:54:27.928Z,6.03
2022-07-31T17:56:54.580Z,2.40
2022-07-31T17:59:21.264Z,2.03
2022-07-31T18:01:51.757Z,4.05
2022-07-31T18:04:21.072Z,2.55
2022-07-31T18:06:51.451Z,3.58
2022-07-31T18:09:24.069Z,4.45
2022-07-31T18:11:52.491Z,2.40
2022-07-31T18:14:20.150Z,6.57
2022-07-31T18:16:47.293Z,2.92
2022-07-31T18:19:15.179Z,3.95
2022-07-31T18:21:42.328Z,4.60
2022-07-31T18:24:11.535Z,2.58
2022-07-31T18:26:38.498Z,3.13
2022-07-31T18:29:06.245Z,3.58
2022-07-31T18:31:35.201Z,4.13
2022-07-31T18:34:04.854Z,3.20
2022-07-31T18:36:34.284Z,3.45
2022-07-31T18:39:01.634Z,2.58
2022-07-31T18:41:28.590Z,3.10
2022-07-31T18:43:58.507Z,2.70
2022-07-31T18:46:28.218Z,4.63
2022-07-31T18:48:56.664Z,2.30
2022-07-31T18:51:28.002Z,2.72
2022-07-31T18:53:55.560Z,3.45
2022-07-31T18:56:24.735Z,3.97
2022-07-31T18:58:52.615Z,4.75
2022-07-31T19:01:20.370Z,5.72
2022-07-31T19:03:47.202Z,3.25
2022-07-31T19:06:13.969Z,5.15
2022-07-31T19:08:40.824Z,5.47
2022-07-31T19:11:07.449Z,4.40
2022-07-31T19:13:34.914Z,2.42
2022-07-31T19:16:01.519Z,4.47
2022-07-31T19:18:29.138Z,5.82
2022-07-31T19:21:19.066Z,3.95
2022-07-31T19:23:45.949Z,4.45
2022-07-31T19:26:12.804Z,3.00
2022-07-31T19:28:40.174Z,5.13
2022-07-31T19:31:07.449Z,3.55
2022-07-31T19:33:34.595Z,2.40
2022-07-31T19:36:03.113Z,3.60
2022-07-31T19:38:31.667Z,4.20
2022-07-31T19:40:58.482Z,3.15
2022-07-31T19:43:25.112Z,5.38
2022-07-31T19:46:10.530Z,4.00
2022-07-31T19:48:41.219Z,3.78
2022-07-31T19:51:08.335Z,4.05
2022-07-31T19:53:35.000Z,2.85
2022-07-31T19:56:05.635Z,3.88
2022-07-31T19:58:36.613Z,3.15
2022-07-31T20:01:05.318Z,2.42
2022-07-31T20:03:32.122Z,4.15
2022-07-31T20:05:58.861Z,5.35
2022-07-31T20:08:25.636Z,3.22
2022-07-31T20:10:52.580Z,2.40
2022-07-31T20:13:19.648Z,2.83
2022-07-31T20:15:51.417Z,5.35
2022-07-31T20:18:28.317Z,4.00
2022-07-31T20:20:57.353Z,6.38
2022-07-31T20:23:25.027Z,4.60
2022-07-31T20:25:51.634Z,3.08
2022-07-31T20:28:18.290Z,3.30
2022-07-31T20:30:44.917Z,4.80
2022-07-31T20:33:13.216Z,4.10
2022-07-31T20:35:48.718Z,3.38
2022-07-31T20:38:21.560Z,6.13
2022-07-31T20:40:54.207Z,6.60
2022-07-31T20:43:26.898Z,4.13
2022-07-31T20:45:57.999Z,4.20
2022-07-31T20:48:32.281Z,5.63
2022-07-31T20:51:00.898Z,3.42
2022-07-31T20:53:28.743Z,4.97
2022-07-31T20:55:56.192Z,6.05
2022-07-31T20:58:24.104Z,6.53
2022-07-31T21:00:52.899Z,3.35
2022-07-31T21:03:20.009Z,3.33
2022-07-31T21:05:47.473Z,5.53
2022-07-31T21:08:14.197Z,4.07
2022-07-31T21:10:40.913Z,4.85
2022-07-31T21:13:07.645Z,4.50
2022-07-31T21:15:43.190Z,4.10
2022-07-31T21:18:16.532Z,5.30
2022-07-31T21:20:51.810Z,3.20
2022-07-31T21:23:22.192Z,3.75
2022-07-31T21:25:49.563Z,4.13
2022-07-31T21:28:16.439Z,3.42
2022-07-31T21:30:43.236Z,4.97
2022-07-31T21:33:10.581Z,3.53
2022-07-31T21:35:39.756Z,3.75
2022-07-31T21:38:10.250Z,4.38
2022-07-31T21:40:38.947Z,5.10
2022-07-31T21:43:06.030Z,5.18
2022-07-31T21:45:38.435Z,4.95
2022-07-31T21:48:19.010Z,5.72
2022-07-31T21:50:46.791Z,4.07
2022-07-31T21:53:14.145Z,3.67
2022-07-31T21:55:41.083Z,7.35
2022-07-31T21:58:09.119Z,6.20
2022-07-31T22:00:35.906Z,5.82
2022-07-31T22:03:03.258Z,4.03
2022-07-31T22:05:48.861Z,4.80
2022-07-31T22:08:15.880Z,7.18
2022-07-31T22:10:42.748Z,6.63
2022-07-31T22:13:09.493Z,4.15
2022-07-31T22:15:56.979Z,4.72
2022-07-31T22:18:23.136Z,6.82
2022-07-31T22:20:54.064Z,3.92
2022-07-31T22:23:21.149Z,5.22
2022-07-31T22:25:49.513Z,4.22
2022-07-31T22:28:20.937Z,2.97
2022-07-31T22:30:48.046Z,5.97
2022-07-31T22:33:14.872Z,6.18
2022-07-31T22:35:42.022Z,3.75
2022-07-31T22:38:11.084Z,4.18
2022-07-31T22:40:37.907Z,4.65
2022-07-31T22:43:47.284Z,5.70
2022-07-31T22:45:53.204Z,4.45
2022-07-31T22:48:21.824Z,3.30
2022-07-31T22:50:49.283Z,3.78
2022-07-31T22:53:15.989Z,3.08
2022-07-31T22:55:42.660Z,5.38
2022-07-31T22:58:11.364Z,3.08
2022-07-31T23:00:38.534Z,2.67
2022-07-31T23:03:05.137Z,2.92
2022-07-31T23:06:28.165Z,3.45
2022-07-31T23:08:18.440Z,2.72
2022-07-31T23:10:45.034Z,5.22
2022-07-31T23:13:11.627Z,2.58
2022-07-31T23:15:38.204Z,6.72
2022-07-31T23:18:04.859Z,2.72
2022-07-31T23:20:31.520Z,3.40
2022-07-31T23:22:58.238Z,2.67
2022-07-31T23:25:24.813Z,2.40
2022-07-31T23:27:51.414Z,4.32
2022-07-31T23:30:18.048Z,3.38
2022-07-31T23:32:44.606Z,2.97
2022-07-31T23:35:11.243Z,3.90
2022-07-31T23:37:37.894Z,3.50
2022-07-31T23:40:05.049Z,3.67
2022-07-31T23:42:40.362Z,3.70
2022-07-31T23:45:11.240Z,2.63
2022-07-31T23:47:45.927Z,2.53
2022-07-31T23:50:14.921Z,6.15
2022-07-31T23:52:42.834Z,2.42
2022-07-31T23:55:09.559Z,2.55
2022-07-31T23:57:36.571Z,2.38
